Time;durP1;ratioP1;P1;durP2;ratioP2;P2;SDS_P1;SDS_P2;PMS_P1;PMS_P2;Temp;Humidity;BMP_temperature;BMP_pressure;BME280_temperature;BME280_humidity;BME280_pressure;Samples;Min_cycle;Max_cycle;Signal;HPM_P1;HPM_P2
2022/05/29 00:01:49;;;;;;;5.00;3.53;;;;;;;;;;766303;181;920456;-64
2022/05/29 00:04:14;;;;;;;5.70;4.00;;;;;;;;;;767750;181;918424;-64
2022/05/29 00:06:40;;;;;;;5.45;3.83;;;;;;;;;;764966;179;925146;-65
2022/05/29 00:09:06;;;;;;;4.73;3.77;;;;;;;;;;765366;181;928418;-64
2022/05/29 00:11:32;;;;;;;5.33;3.80;;;;;;;;;;771192;181;918862;-64
2022/05/29 00:14:00;;;;;;;5.20;3.80;;;;;;;;;;767639;181;919296;-65
2022/05/29 00:16:24;;;;;;;6.47;4.50;;;;;;;;;;766515;181;919285;-63
2022/05/29 00:18:50;;;;;;;5.57;3.87;;;;;;;;;;773594;180;920233;-64
2022/05/29 00:21:15;;;;;;;5.17;4.23;;;;;;;;;;763235;180;919833;-65
2022/05/29 00:23:41;;;;;;;6.83;3.90;;;;;;;;;;765849;179;1165765;-65
2022/05/29 00:26:07;;;;;;;6.00;3.80;;;;;;;;;;768589;180;1021361;-65
2022/05/29 00:28:33;;;;;;;7.73;4.33;;;;;;;;;;771917;181;914170;-64
2022/05/29 00:30:59;;;;;;;6.07;4.40;;;;;;;;;;771505;180;919091;-65
2022/05/29 00:33:25;;;;;;;7.15;3.70;;;;;;;;;;768852;180;919235;-63
2022/05/29 00:35:51;;;;;;;4.40;3.57;;;;;;;;;;773315;181;919698;-65
2022/05/29 00:38:17;;;;;;;6.50;3.90;;;;;;;;;;765055;181;919481;-64
2022/05/29 00:40:43;;;;;;;4.87;3.63;;;;;;;;;;765880;180;919327;-63
2022/05/29 00:43:09;;;;;;;4.40;3.50;;;;;;;;;;770307;179;919432;-64
2022/05/29 00:45:37;;;;;;;8.13;3.80;;;;;;;;;;768474;181;919653;-64
2022/05/29 00:48:04;;;;;;;4.30;3.70;;;;;;;;;;767449;178;918761;-65
2022/05/29 00:50:29;;;;;;;5.47;3.60;;;;;;;;;;767107;181;919237;-65
2022/05/29 00:52:55;;;;;;;5.53;3.60;;;;;;;;;;771973;179;919397;-64
2022/05/29 00:55:22;;;;;;;6.37;3.40;;;;;;;;;;768094;181;919710;-63
2022/05/29 00:57:48;;;;;;;5.60;3.43;;;;;;;;;;762563;181;919100;-64
2022/05/29 01:00:14;;;;;;;4.67;3.47;;;;;;;;;;766810;181;967690;-65
2022/05/29 01:02:40;;;;;;;5.93;3.53;;;;;;;;;;765896;181;919667;-65
2022/05/29 01:05:07;;;;;;;4.72;3.53;;;;;;;;;;766402;181;919430;-65
2022/05/29 01:07:33;;;;;;;4.70;3.42;;;;;;;;;;772343;181;919384;-63
2022/05/29 01:09:59;;;;;;;4.50;3.10;;;;;;;;;;763746;181;919304;-64
2022/05/29 01:12:31;;;;;;;5.00;3.30;;;;;;;;;;766749;181;919370;-65
2022/05/29 01:14:56;;;;;;;5.23;3.47;;;;;;;;;;766199;181;919118;-65
2022/05/29 01:17:22;;;;;;;4.87;4.00;;;;;;;;;;770454;182;919452;-64
2022/05/29 01:19:52;;;;;;;4.43;3.40;;;;;;;;;;763560;181;1000927;-66
2022/05/29 01:22:24;;;;;;;5.10;3.47;;;;;;;;;;765540;181;915239;-65
2022/05/29 01:25:07;;;;;;;5.23;4.17;;;;;;;;;;766209;181;919946;-64
2022/05/29 01:27:33;;;;;;;4.93;4.30;;;;;;;;;;763900;179;919418;-66
2022/05/29 01:29:59;;;;;;;4.47;3.60;;;;;;;;;;772246;181;915925;-66
2022/05/29 01:32:26;;;;;;;5.93;3.20;;;;;;;;;;762338;181;915634;-65
2022/05/29 01:34:52;;;;;;;5.80;2.97;;;;;;;;;;767252;181;915736;-66
2022/05/29 01:37:21;;;;;;;4.55;3.40;;;;;;;;;;764338;179;917586;-66
2022/05/29 01:39:46;;;;;;;5.30;3.50;;;;;;;;;;753444;183;914807;-67
2022/05/29 01:42:13;;;;;;;38.17;4.90;;;;;;;;;;773077;177;920726;-66
2022/05/29 01:44:41;;;;;;;5.73;3.40;;;;;;;;;;767546;178;919262;-66
2022/05/29 01:47:09;;;;;;;4.05;3.08;;;;;;;;;;774172;178;916180;-66
2022/05/29 01:49:35;;;;;;;10.20;3.47;;;;;;;;;;768981;181;920034;-66
2022/05/29 01:52:01;;;;;;;7.23;4.00;;;;;;;;;;766466;179;916124;-66
2022/05/29 01:54:28;;;;;;;5.67;3.40;;;;;;;;;;767031;181;919738;-66
2022/05/29 01:56:55;;;;;;;4.00;3.07;;;;;;;;;;757390;182;912926;-66
2022/05/29 01:59:22;;;;;;;6.43;3.90;;;;;;;;;;768764;181;919316;-67
2022/05/29 02:01:48;;;;;;;4.17;3.07;;;;;;;;;;767035;179;918241;-65
2022/05/29 02:04:14;;;;;;;4.20;3.37;;;;;;;;;;772878;181;914475;-65
2022/05/29 02:09:12;;;;;;;4.80;3.03;;;;;;;;;;766687;181;918154;-66
2022/05/29 02:11:38;;;;;;;5.97;3.40;;;;;;;;;;767414;179;917314;-67
2022/05/29 02:14:04;;;;;;;4.60;3.30;;;;;;;;;;769817;179;904261;-66
2022/05/29 02:16:33;;;;;;;7.60;3.67;;;;;;;;;;764366;181;915114;-65
2022/05/29 02:18:59;;;;;;;4.00;2.73;;;;;;;;;;765484;178;1018156;-65
2022/05/29 02:21:32;;;;;;;5.40;3.57;;;;;;;;;;771930;181;912815;-64
2022/05/29 02:23:57;;;;;;;4.27;3.00;;;;;;;;;;761544;183;911887;-65
2022/05/29 02:26:23;;;;;;;4.60;3.37;;;;;;;;;;767476;181;917103;-65
2022/05/29 02:28:51;;;;;;;3.43;2.60;;;;;;;;;;760925;179;915638;-66
2022/05/29 02:31:17;;;;;;;3.60;2.70;;;;;;;;;;772930;181;910270;-63
2022/05/29 02:33:43;;;;;;;5.20;3.57;;;;;;;;;;766812;181;914666;-65
2022/05/29 02:38:41;;;;;;;3.63;2.90;;;;;;;;;;767108;181;919941;-65
2022/05/29 02:41:07;;;;;;;4.83;3.80;;;;;;;;;;770926;181;916593;-65
2022/05/29 02:43:36;;;;;;;6.20;3.00;;;;;;;;;;769955;179;915101;-64
2022/05/29 02:46:17;;;;;;;4.20;3.60;;;;;;;;;;765171;179;920771;-64
2022/05/29 02:48:43;;;;;;;3.43;2.70;;;;;;;;;;763777;178;915592;-65
2022/05/29 02:51:10;;;;;;;4.97;3.53;;;;;;;;;;775227;180;916005;-64
2022/05/29 02:53:36;;;;;;;7.10;3.67;;;;;;;;;;768421;177;1018506;-64
2022/05/29 02:56:04;;;;;;;5.63;3.60;;;;;;;;;;770343;178;915659;-63
2022/05/29 02:58:29;;;;;;;27.17;6.17;;;;;;;;;;767498;180;920376;-62
2022/05/29 03:00:58;;;;;;;4.93;3.60;;;;;;;;;;773321;178;915981;-62
2022/05/29 03:03:24;;;;;;;5.90;4.20;;;;;;;;;;769291;180;920343;-62
2022/05/29 03:05:50;;;;;;;30.53;6.43;;;;;;;;;;766997;181;915982;-62
2022/05/29 03:08:16;;;;;;;5.50;3.80;;;;;;;;;;772554;178;915923;-63
2022/05/29 03:10:43;;;;;;;5.25;3.80;;;;;;;;;;766444;179;916037;-61
2022/05/29 03:13:11;;;;;;;82.77;13.97;;;;;;;;;;765203;179;916644;-63
2022/05/29 03:15:41;;;;;;;5.70;4.20;;;;;;;;;;766449;181;916789;-62
2022/05/29 03:18:18;;;;;;;6.60;4.12;;;;;;;;;;772435;179;920594;-63
2022/05/29 03:20:47;;;;;;;4.67;4.17;;;;;;;;;;762077;182;937292;-62
2022/05/29 03:23:19;;;;;;;4.00;3.13;;;;;;;;;;767411;179;916152;-63
2022/05/29 03:25:45;;;;;;;5.53;3.93;;;;;;;;;;767062;181;916517;-63
2022/05/29 03:28:12;;;;;;;5.87;3.70;;;;;;;;;;768221;179;916367;-61
2022/05/29 03:30:38;;;;;;;5.97;4.40;;;;;;;;;;767430;180;916247;-63
2022/05/29 03:33:06;;;;;;;6.23;4.43;;;;;;;;;;769340;181;916694;-64
2022/05/29 03:35:29;;;;;;;6.15;4.35;;;;;;;;;;766184;181;919901;-64
2022/05/29 03:37:55;;;;;;;5.20;3.50;;;;;;;;;;771907;181;916820;-63
2022/05/29 03:40:21;;;;;;;4.80;4.30;;;;;;;;;;768102;181;916745;-63
2022/05/29 03:42:47;;;;;;;8.30;4.53;;;;;;;;;;766097;181;920202;-64
2022/05/29 03:45:13;;;;;;;12.33;5.20;;;;;;;;;;772477;181;920999;-64
2022/05/29 03:47:39;;;;;;;5.87;5.28;;;;;;;;;;768452;181;916264;-62
2022/05/29 03:50:05;;;;;;;11.20;5.37;;;;;;;;;;767956;181;919949;-64
2022/05/29 03:52:31;;;;;;;8.48;5.15;;;;;;;;;;768127;181;918488;-64
2022/05/29 03:54:57;;;;;;;8.00;5.63;;;;;;;;;;761829;179;919205;-65
2022/05/29 03:57:23;;;;;;;8.03;5.67;;;;;;;;;;768579;178;948379;-65
2022/05/29 03:59:49;;;;;;;7.00;6.30;;;;;;;;;;766446;181;920950;-66
2022/05/29 04:02:14;;;;;;;7.80;5.33;;;;;;;;;;774656;177;918323;-65
2022/05/29 04:04:41;;;;;;;8.40;6.23;;;;;;;;;;766902;178;914200;-65
2022/05/29 04:07:06;;;;;;;7.80;6.60;;;;;;;;;;766622;179;918901;-66
2022/05/29 04:12:04;;;;;;;12.10;8.20;;;;;;;;;;768679;179;920250;-66
2022/05/29 04:14:30;;;;;;;11.50;7.93;;;;;;;;;;769239;179;921031;-66
2022/05/29 04:16:56;;;;;;;12.50;7.10;;;;;;;;;;769332;180;920756;-65
2022/05/29 04:19:22;;;;;;;10.87;8.90;;;;;;;;;;772592;181;918284;-64
2022/05/29 04:21:49;;;;;;;16.30;9.83;;;;;;;;;;766894;181;919343;-66
2022/05/29 04:24:13;;;;;;;19.90;10.68;;;;;;;;;;767479;179;919333;-64
2022/05/29 04:26:39;;;;;;;12.43;9.40;;;;;;;;;;771042;181;919179;-64
2022/05/29 04:29:05;;;;;;;14.33;9.40;;;;;;;;;;765359;180;918958;-64
2022/05/29 04:31:32;;;;;;;18.90;11.30;;;;;;;;;;765846;181;920724;-64
2022/05/29 04:33:57;;;;;;;19.08;11.95;;;;;;;;;;771304;181;934558;-64
2022/05/29 04:36:24;;;;;;;25.67;12.00;;;;;;;;;;767908;181;919263;-64
2022/05/29 04:38:49;;;;;;;18.40;12.33;;;;;;;;;;767735;180;919293;-63
2022/05/29 04:41:16;;;;;;;25.17;15.70;;;;;;;;;;767263;181;918150;-63
2022/05/29 04:43:41;;;;;;;32.23;17.47;;;;;;;;;;772702;179;915826;-63
2022/05/29 04:46:07;;;;;;;32.97;21.42;;;;;;;;;;767955;181;915039;-63
2022/05/29 04:48:32;;;;;;;25.73;18.77;;;;;;;;;;767735;181;918780;-62
2022/05/29 04:50:59;;;;;;;21.77;15.93;;;;;;;;;;772955;181;911842;-62
2022/05/29 04:53:25;;;;;;;24.90;18.43;;;;;;;;;;765198;178;911490;-62
2022/05/29 04:55:52;;;;;;;28.80;19.23;;;;;;;;;;765927;179;912779;-63
2022/05/29 04:58:17;;;;;;;25.60;17.83;;;;;;;;;;771515;179;912294;-62
2022/05/29 05:00:44;;;;;;;19.47;15.93;;;;;;;;;;767477;181;916550;-62
2022/05/29 05:03:09;;;;;;;21.43;14.10;;;;;;;;;;766736;178;920826;-62
2022/05/29 05:05:36;;;;;;;23.23;16.10;;;;;;;;;;767437;181;919224;-63
2022/05/29 05:08:01;;;;;;;21.67;14.43;;;;;;;;;;773008;180;914363;-62
2022/05/29 05:10:27;;;;;;;18.37;13.60;;;;;;;;;;771367;181;634913;-61
2022/05/29 05:12:53;;;;;;;14.00;12.37;;;;;;;;;;772261;180;637782;-64
2022/05/29 05:15:18;;;;;;;16.60;12.83;;;;;;;;;;775681;180;624984;-62
2022/05/29 05:17:44;;;;;;;13.77;10.73;;;;;;;;;;766401;180;919211;-62
2022/05/29 05:20:10;;;;;;;18.43;12.40;;;;;;;;;;758734;180;919438;-62
2022/05/29 05:22:36;;;;;;;12.63;9.47;;;;;;;;;;774475;180;631407;-62
2022/05/29 05:25:02;;;;;;;12.50;10.47;;;;;;;;;;774027;181;620479;-63
2022/05/29 05:27:28;;;;;;;11.83;8.50;;;;;;;;;;772411;179;624733;-63
2022/05/29 05:29:54;;;;;;;12.03;7.47;;;;;;;;;;771803;178;627449;-63
2022/05/29 05:32:20;;;;;;;12.13;8.33;;;;;;;;;;756938;183;632006;-63
2022/05/29 05:34:46;;;;;;;9.80;6.40;;;;;;;;;;772451;179;627209;-63
2022/05/29 05:37:11;;;;;;;8.93;6.40;;;;;;;;;;771948;179;621167;-64
2022/05/29 05:39:37;;;;;;;15.60;6.20;;;;;;;;;;776886;181;643832;-64
2022/05/29 05:42:03;;;;;;;8.30;5.87;;;;;;;;;;771808;181;630573;-64
2022/05/29 05:44:29;;;;;;;12.00;5.43;;;;;;;;;;773237;181;649740;-63
2022/05/29 05:46:56;;;;;;;8.80;4.83;;;;;;;;;;777525;181;619143;-65
2022/05/29 05:49:21;;;;;;;9.73;5.37;;;;;;;;;;772463;179;633627;-64
2022/05/29 05:51:47;;;;;;;7.03;5.20;;;;;;;;;;770393;181;625887;-64
2022/05/29 05:54:13;;;;;;;8.83;5.63;;;;;;;;;;771627;179;633841;-64
2022/05/29 05:56:42;;;;;;;13.53;6.30;;;;;;;;;;768068;179;627920;-64
2022/05/29 05:59:08;;;;;;;7.60;4.80;;;;;;;;;;771618;179;632066;-65
2022/05/29 06:01:34;;;;;;;11.63;5.03;;;;;;;;;;770461;181;920087;-66
2022/05/29 06:04:00;;;;;;;7.77;4.63;;;;;;;;;;775546;181;629004;-65
2022/05/29 06:06:26;;;;;;;8.43;4.50;;;;;;;;;;771947;179;646089;-65
2022/05/29 06:08:52;;;;;;;7.20;4.03;;;;;;;;;;775313;181;919146;-66
2022/05/29 06:11:17;;;;;;;9.17;4.37;;;;;;;;;;763360;181;625297;-67
2022/05/29 06:13:43;;;;;;;8.13;4.20;;;;;;;;;;772153;181;627150;-66
2022/05/29 06:16:09;;;;;;;9.00;4.70;;;;;;;;;;772738;180;625940;-68
2022/05/29 06:18:35;;;;;;;12.43;4.50;;;;;;;;;;770705;181;643303;-67
2022/05/29 06:21:01;;;;;;;7.33;3.47;;;;;;;;;;775295;181;634240;-66
2022/05/29 06:23:27;;;;;;;5.13;4.10;;;;;;;;;;772870;180;635009;-67
2022/05/29 06:25:53;;;;;;;11.90;5.37;;;;;;;;;;774409;180;618131;-69
2022/05/29 06:28:18;;;;;;;5.83;3.10;;;;;;;;;;777082;178;635798;-68
2022/05/29 06:30:44;;;;;;;9.10;3.97;;;;;;;;;;770426;180;633192;-71
2022/05/29 06:33:10;;;;;;;6.43;3.83;;;;;;;;;;769770;179;624558;-67
2022/05/29 06:35:36;;;;;;;5.93;3.47;;;;;;;;;;775116;181;632202;-68
2022/05/29 06:38:02;;;;;;;8.00;3.93;;;;;;;;;;772106;180;638693;-68
2022/05/29 06:40:28;;;;;;;5.00;3.10;;;;;;;;;;772986;181;629713;-68
2022/05/29 06:42:53;;;;;;;6.70;3.80;;;;;;;;;;773131;178;648873;-68
2022/05/29 06:45:19;;;;;;;9.30;3.50;;;;;;;;;;760423;183;624752;-68
2022/05/29 06:47:45;;;;;;;4.90;3.23;;;;;;;;;;771858;179;633761;-69
2022/05/29 06:50:11;;;;;;;6.77;3.50;;;;;;;;;;770642;179;628701;-70
2022/05/29 06:52:37;;;;;;;4.97;3.20;;;;;;;;;;776427;181;629074;-68
2022/05/29 06:55:03;;;;;;;9.73;3.50;;;;;;;;;;770501;179;728192;-72
2022/05/29 07:07:35;;;;;;;3.80;2.67;;;;;;;;;;771916;181;619348;-72
2022/05/29 07:10:01;;;;;;;3.70;2.20;;;;;;;;;;770399;181;792134;-69
2022/05/29 07:12:27;;;;;;;6.63;2.60;;;;;;;;;;773725;181;627692;-71
2022/05/29 07:14:58;;;;;;;5.20;2.70;;;;;;;;;;771717;181;633510;-70
2022/05/29 07:17:24;;;;;;;7.33;2.70;;;;;;;;;;771323;181;627109;-71
2022/05/29 07:19:49;;;;;;;18.83;2.30;;;;;;;;;;770923;179;619105;-71
2022/05/29 07:22:15;;;;;;;5.87;2.20;;;;;;;;;;760932;184;633552;-71
2022/05/29 07:24:41;;;;;;;5.83;1.80;;;;;;;;;;772736;181;633195;-73
2022/05/29 07:27:07;;;;;;;6.63;2.50;;;;;;;;;;770875;179;628615;-71
2022/05/29 07:29:33;;;;;;;15.80;2.80;;;;;;;;;;775732;181;612066;-72
2022/05/29 07:32:00;;;;;;;5.90;2.00;;;;;;;;;;771340;179;623282;-71
2022/05/29 07:34:24;;;;;;;5.30;2.20;;;;;;;;;;772669;181;632673;-71
2022/05/29 07:36:51;;;;;;;5.80;2.30;;;;;;;;;;777152;179;635429;-72
2022/05/29 07:39:16;;;;;;;6.40;2.50;;;;;;;;;;772411;178;653856;-74
2022/05/29 07:44:14;;;;;;;8.50;3.23;;;;;;;;;;767074;180;919371;-72
2022/05/29 07:46:39;;;;;;;5.57;2.30;;;;;;;;;;772729;179;921295;-73
2022/05/29 07:49:06;;;;;;;3.80;2.00;;;;;;;;;;769796;181;918717;-74
2022/05/29 07:51:31;;;;;;;6.53;2.20;;;;;;;;;;770344;181;920625;-75
2022/05/29 07:53:57;;;;;;;4.63;2.70;;;;;;;;;;774636;181;626468;-75
2022/05/29 07:56:23;;;;;;;5.37;2.37;;;;;;;;;;771574;179;918378;-76
2022/05/29 07:58:49;;;;;;;11.40;3.10;;;;;;;;;;772549;181;628743;-77
2022/05/29 08:01:15;;;;;;;7.73;2.07;;;;;;;;;;775480;179;641936;-77
2022/05/29 08:03:40;;;;;;;7.67;2.33;;;;;;;;;;770037;179;640464;-77
2022/05/29 08:06:06;;;;;;;6.65;1.85;;;;;;;;;;765788;181;919481;-77
2022/05/29 08:08:32;;;;;;;4.20;1.90;;;;;;;;;;768190;178;919448;-77
2022/05/29 08:10:58;;;;;;;5.13;2.80;;;;;;;;;;774811;179;636228;-79
2022/05/29 08:13:24;;;;;;;3.90;1.67;;;;;;;;;;769782;181;630177;-79
2022/05/29 08:15:50;;;;;;;4.97;2.33;;;;;;;;;;770181;181;695554;-77
2022/05/29 08:18:16;;;;;;;4.43;2.50;;;;;;;;;;774470;181;713539;-76
2022/05/29 08:20:41;;;;;;;4.53;1.83;;;;;;;;;;769529;181;816024;-76
2022/05/29 08:23:07;;;;;;;3.60;1.80;;;;;;;;;;770221;181;816179;-77
2022/05/29 08:30:40;;;;;;;3.50;1.70;;;;;;;;;;769884;181;918907;-78
2022/05/29 08:33:05;;;;;;;8.27;1.90;;;;;;;;;;771418;180;788823;-80
2022/05/29 08:35:31;;;;;;;4.20;1.87;;;;;;;;;;773772;181;617187;-78
2022/05/29 08:37:57;;;;;;;3.17;1.70;;;;;;;;;;768963;179;945141;-76
2022/05/29 08:40:22;;;;;;;5.37;2.13;;;;;;;;;;768176;181;919347;-77
2022/05/29 08:42:48;;;;;;;3.00;1.80;;;;;;;;;;768661;181;817892;-77
2022/05/29 08:45:15;;;;;;;7.60;1.90;;;;;;;;;;772490;179;812994;-79
2022/05/29 08:47:40;;;;;;;5.40;1.80;;;;;;;;;;771014;178;630369;-78
2022/05/29 08:50:06;;;;;;;4.30;1.60;;;;;;;;;;772246;180;670616;-78
2022/05/29 08:52:38;;;;;;;7.00;1.40;;;;;;;;;;775951;180;815221;-78
2022/05/29 08:55:09;;;;;;;4.17;1.40;;;;;;;;;;771577;179;816259;-78
2022/05/29 08:57:52;;;;;;;5.60;1.83;;;;;;;;;;773063;181;660675;-78
2022/05/29 09:00:19;;;;;;;7.73;1.90;;;;;;;;;;772179;179;633916;-77
2022/05/29 09:02:49;;;;;;;3.13;1.27;;;;;;;;;;772693;179;623834;-78
2022/05/29 09:05:19;;;;;;;4.23;1.50;;;;;;;;;;774363;179;616868;-78
2022/05/29 09:07:45;;;;;;;7.00;1.80;;;;;;;;;;769107;179;631682;-76
2022/05/29 09:10:11;;;;;;;4.83;1.57;;;;;;;;;;769941;179;637902;-79
2022/05/29 09:12:38;;;;;;;4.20;1.83;;;;;;;;;;769148;181;633611;-74
2022/05/29 09:15:06;;;;;;;3.40;1.50;;;;;;;;;;770655;179;620554;-78
2022/05/29 09:17:35;;;;;;;5.33;1.53;;;;;;;;;;773514;181;637952;-77
2022/05/29 09:19:59;;;;;;;3.60;1.50;;;;;;;;;;772037;181;639393;-76
2022/05/29 09:22:28;;;;;;;5.10;1.70;;;;;;;;;;763474;179;1021040;-80
2022/05/29 09:24:56;;;;;;;4.23;1.77;;;;;;;;;;763199;182;626528;-79
2022/05/29 09:27:22;;;;;;;7.77;2.27;;;;;;;;;;772276;177;744852;-80
2022/05/29 09:29:47;;;;;;;3.87;1.50;;;;;;;;;;771117;180;817505;-77
2022/05/29 09:32:13;;;;;;;3.70;1.60;;;;;;;;;;770256;179;623534;-79
2022/05/29 09:34:39;;;;;;;6.93;1.87;;;;;;;;;;768561;181;816561;-79
2022/05/29 09:37:05;;;;;;;6.27;2.53;;;;;;;;;;770736;181;640987;-77
2022/05/29 09:39:33;;;;;;;4.40;1.60;;;;;;;;;;773504;181;627588;-76
2022/05/29 09:42:17;;;;;;;6.30;2.30;;;;;;;;;;763928;182;623136;-76
2022/05/29 09:44:58;;;;;;;5.80;1.70;;;;;;;;;;762959;184;619124;-77
2022/05/29 09:50:01;;;;;;;3.77;1.60;;;;;;;;;;771121;181;645347;-78
2022/05/29 09:52:27;;;;;;;3.30;1.40;;;;;;;;;;771006;179;643053;-77
2022/05/29 09:54:53;;;;;;;7.10;2.10;;;;;;;;;;770928;179;636841;-78
2022/05/29 09:57:20;;;;;;;4.73;1.90;;;;;;;;;;774248;179;629644;-77
2022/05/29 09:59:46;;;;;;;3.70;1.30;;;;;;;;;;773520;179;624644;-78
2022/05/29 10:02:15;;;;;;;4.90;1.90;;;;;;;;;;772141;178;817746;-77
2022/05/29 10:04:41;;;;;;;3.20;1.63;;;;;;;;;;776257;180;637471;-77
2022/05/29 10:07:14;;;;;;;3.10;1.47;;;;;;;;;;770254;178;644112;-77
2022/05/29 10:09:39;;;;;;;3.97;1.40;;;;;;;;;;770027;178;658359;-76
2022/05/29 10:12:11;;;;;;;4.10;2.20;;;;;;;;;;770217;179;652531;-79
2022/05/29 10:14:36;;;;;;;4.60;1.40;;;;;;;;;;775189;181;632181;-77
2022/05/29 10:17:02;;;;;;;3.87;1.60;;;;;;;;;;771207;179;623406;-79
2022/05/29 10:19:30;;;;;;;4.00;2.27;;;;;;;;;;771609;181;639969;-77
2022/05/29 10:21:56;;;;;;;2.73;1.30;;;;;;;;;;771507;181;639280;-77
2022/05/29 10:24:36;;;;;;;3.47;1.43;;;;;;;;;;775133;181;615926;-78
2022/05/29 10:26:57;;;;;;;4.20;1.30;;;;;;;;;;771748;179;629381;-78
2022/05/29 10:29:27;;;;;;;4.33;1.63;;;;;;;;;;770696;179;628480;-77
2022/05/29 10:31:53;;;;;;;3.77;1.73;;;;;;;;;;771519;181;640546;-76
2022/05/29 10:34:21;;;;;;;3.27;1.40;;;;;;;;;;774414;179;619209;-78
2022/05/29 10:36:47;;;;;;;6.33;3.33;;;;;;;;;;767806;182;623229;-77
2022/05/29 10:39:13;;;;;;;4.57;1.70;;;;;;;;;;767105;181;634947;-75
2022/05/29 10:41:39;;;;;;;3.10;1.37;;;;;;;;;;773654;181;633769;-83
2022/05/29 10:44:06;;;;;;;6.90;1.70;;;;;;;;;;770095;181;816460;-78
2022/05/29 10:46:38;;;;;;;4.97;1.50;;;;;;;;;;765801;181;816460;-78
2022/05/29 10:49:10;;;;;;;2.83;1.37;;;;;;;;;;772235;180;626125;-80
2022/05/29 10:51:41;;;;;;;3.73;1.60;;;;;;;;;;773715;181;615807;-77
2022/05/29 10:54:13;;;;;;;4.10;1.50;;;;;;;;;;768833;181;625596;-78
2022/05/29 10:56:53;;;;;;;6.82;1.80;;;;;;;;;;768889;181;813473;-76
2022/05/29 10:59:21;;;;;;;8.13;2.23;;;;;;;;;;769309;181;704982;-76
2022/05/29 11:04:22;;;;;;;3.10;1.30;;;;;;;;;;772997;179;711093;-78
2022/05/29 11:06:50;;;;;;;4.20;1.73;;;;;;;;;;780486;178;616018;-80
2022/05/29 11:09:19;;;;;;;2.73;1.60;;;;;;;;;;777254;180;630747;-81
2022/05/29 11:12:01;;;;;;;4.00;1.40;;;;;;;;;;775234;178;636475;-80
2022/05/29 11:14:39;;;;;;;3.30;1.80;;;;;;;;;;770934;180;626705;-77
2022/05/29 11:17:04;;;;;;;3.40;1.40;;;;;;;;;;772486;180;629752;-79
2022/05/29 11:19:35;;;;;;;2.93;1.50;;;;;;;;;;775266;181;639294;-79
2022/05/29 11:22:16;;;;;;;4.80;1.47;;;;;;;;;;763701;182;815747;-80
2022/05/29 11:24:59;;;;;;;5.50;1.30;;;;;;;;;;762515;182;924770;-78
2022/05/29 11:27:30;;;;;;;3.80;1.27;;;;;;;;;;762083;182;811514;-77
2022/05/29 11:29:57;;;;;;;4.37;1.53;;;;;;;;;;771368;180;811934;-79
2022/05/29 11:32:26;;;;;;;3.13;1.40;;;;;;;;;;767545;181;913346;-79
2022/05/29 11:34:52;;;;;;;5.27;1.60;;;;;;;;;;773612;181;813258;-81
2022/05/29 11:37:18;;;;;;;5.10;1.50;;;;;;;;;;764181;181;909545;-79
2022/05/29 11:39:45;;;;;;;4.20;1.30;;;;;;;;;;771031;179;910346;-76
2022/05/29 11:42:14;;;;;;;3.97;1.45;;;;;;;;;;769242;181;919226;-81
2022/05/29 11:44:40;;;;;;;4.83;1.57;;;;;;;;;;774196;181;816859;-78
2022/05/29 11:52:14;;;;;;;3.47;1.87;;;;;;;;;;770508;179;629218;-80
2022/05/29 11:54:39;;;;;;;4.63;2.23;;;;;;;;;;771944;181;627642;-81
2022/05/29 11:57:06;;;;;;;3.70;1.77;;;;;;;;;;769893;179;627607;-80
2022/05/29 11:59:33;;;;;;;4.63;1.60;;;;;;;;;;771607;179;627061;-79
2022/05/29 12:02:02;;;;;;;8.00;1.90;;;;;;;;;;771537;181;626406;-78
2022/05/29 12:04:28;;;;;;;3.60;1.30;;;;;;;;;;769047;179;816845;-80
2022/05/29 12:06:55;;;;;;;5.83;1.50;;;;;;;;;;766169;179;897771;-80
2022/05/29 12:09:22;;;;;;;3.27;1.40;;;;;;;;;;774641;179;633693;-78
2022/05/29 12:11:53;;;;;;;3.67;1.53;;;;;;;;;;776358;181;633492;-79
2022/05/29 12:14:19;;;;;;;2.50;1.27;;;;;;;;;;768606;181;713036;-79
2022/05/29 12:16:45;;;;;;;3.70;1.70;;;;;;;;;;769555;178;656853;-79
2022/05/29 12:19:14;;;;;;;3.77;1.30;;;;;;;;;;770138;181;642079;-80
2022/05/29 12:21:42;;;;;;;3.73;1.43;;;;;;;;;;776541;179;613554;-79
2022/05/29 12:24:09;;;;;;;4.83;1.90;;;;;;;;;;773195;180;632441;-77
2022/05/29 12:26:37;;;;;;;7.30;1.60;;;;;;;;;;773719;178;638496;-79
2022/05/29 12:29:03;;;;;;;7.60;1.60;;;;;;;;;;771821;180;629246;-77
2022/05/29 12:31:29;;;;;;;4.30;1.37;;;;;;;;;;776561;178;628716;-81
2022/05/29 12:33:55;;;;;;;6.23;1.20;;;;;;;;;;772898;179;621274;-75
2022/05/29 12:36:26;;;;;;;4.03;2.17;;;;;;;;;;772657;179;632062;-75
2022/05/29 12:38:55;;;;;;;5.40;1.73;;;;;;;;;;771307;179;613371;-74
2022/05/29 12:41:21;;;;;;;2.77;1.40;;;;;;;;;;769934;181;618023;-76
2022/05/29 12:43:48;;;;;;;5.80;1.50;;;;;;;;;;771404;179;646777;-79
2022/05/29 12:46:20;;;;;;;5.30;1.50;;;;;;;;;;771037;181;623969;-78
2022/05/29 12:49:03;;;;;;;6.00;1.67;;;;;;;;;;775529;181;608845;-78
2022/05/29 12:51:29;;;;;;;3.53;1.30;;;;;;;;;;764747;182;631944;-77
2022/05/29 12:53:57;;;;;;;6.57;1.70;;;;;;;;;;766100;180;919734;-76
2022/05/29 12:56:29;;;;;;;3.70;1.63;;;;;;;;;;771263;181;817194;-78
2022/05/29 12:58:59;;;;;;;3.20;1.73;;;;;;;;;;771147;181;713129;-76
2022/05/29 13:01:26;;;;;;;3.50;1.50;;;;;;;;;;768917;181;916234;-78
2022/05/29 13:03:52;;;;;;;3.60;1.30;;;;;;;;;;763193;182;631357;-75
2022/05/29 13:06:35;;;;;;;4.87;1.50;;;;;;;;;;754067;181;920050;-77
2022/05/29 13:09:06;;;;;;;3.90;1.60;;;;;;;;;;760979;178;631971;-77
2022/05/29 13:11:32;;;;;;;6.13;2.60;;;;;;;;;;767223;181;916403;-77
2022/05/29 13:13:59;;;;;;;5.53;1.93;;;;;;;;;;774962;178;637620;-78
2022/05/29 13:16:26;;;;;;;2.73;1.50;;;;;;;;;;772969;181;643573;-77
2022/05/29 13:19:07;;;;;;;6.33;1.70;;;;;;;;;;770280;181;714353;-78
2022/05/29 13:21:23;;;;;;;4.00;1.70;;;;;;;;;;769697;181;939893;-77
2022/05/29 13:23:50;;;;;;;2.97;1.10;;;;;;;;;;774533;181;793983;-78
2022/05/29 13:26:17;;;;;;;6.00;1.40;;;;;;;;;;771886;179;630803;-78
2022/05/29 13:28:51;;;;;;;4.00;1.83;;;;;;;;;;772127;181;614736;-78
2022/05/29 13:31:17;;;;;;;3.83;1.70;;;;;;;;;;771402;181;641896;-79
2022/05/29 13:33:45;;;;;;;3.20;1.50;;;;;;;;;;775413;180;640254;-68
2022/05/29 13:36:11;;;;;;;4.00;1.40;;;;;;;;;;773136;180;652112;-71
2022/05/29 13:38:42;;;;;;;4.23;1.60;;;;;;;;;;770900;178;631659;-68
2022/05/29 13:41:10;;;;;;;4.50;1.63;;;;;;;;;;769712;178;919264;-74
2022/05/29 13:43:34;;;;;;;3.23;1.50;;;;;;;;;;775383;180;644285;-75
2022/05/29 13:46:04;;;;;;;3.20;1.37;;;;;;;;;;772227;181;682603;-77
2022/05/29 13:48:31;;;;;;;4.20;1.30;;;;;;;;;;772246;178;631482;-77
2022/05/29 13:51:02;;;;;;;3.37;1.40;;;;;;;;;;774996;178;658906;-76
2022/05/29 13:53:28;;;;;;;3.60;1.40;;;;;;;;;;766716;184;614593;-75
2022/05/29 13:56:11;;;;;;;5.00;1.40;;;;;;;;;;770814;181;731493;-75
2022/05/29 14:06:10;;;;;;;3.63;1.80;;;;;;;;;;774928;181;614579;-75
2022/05/29 14:08:37;;;;;;;6.27;1.60;;;;;;;;;;771200;179;627842;-75
2022/05/29 14:11:05;;;;;;;2.90;1.50;;;;;;;;;;768328;181;657602;-76
2022/05/29 14:13:32;;;;;;;2.67;1.50;;;;;;;;;;769153;179;633725;-76
2022/05/29 14:15:57;;;;;;;5.90;1.80;;;;;;;;;;761751;184;758318;-76
2022/05/29 14:18:24;;;;;;;4.10;1.30;;;;;;;;;;771770;179;632197;-75
2022/05/29 14:20:55;;;;;;;7.20;1.80;;;;;;;;;;771071;181;630281;-75
2022/05/29 14:23:26;;;;;;;5.70;2.00;;;;;;;;;;775062;179;619970;-79
2022/05/29 14:25:53;;;;;;;4.73;1.70;;;;;;;;;;761667;183;620141;-76
2022/05/29 14:28:20;;;;;;;4.30;1.83;;;;;;;;;;772449;181;667561;-76
2022/05/29 14:30:50;;;;;;;4.00;1.50;;;;;;;;;;772393;179;619471;-77
2022/05/29 14:33:19;;;;;;;11.80;4.80;;;;;;;;;;773371;179;625389;-76
2022/05/29 14:35:45;;;;;;;6.90;1.77;;;;;;;;;;758963;181;773380;-77
2022/05/29 14:38:13;;;;;;;2.40;1.30;;;;;;;;;;768474;179;815115;-77
2022/05/29 14:40:42;;;;;;;2.10;1.20;;;;;;;;;;769817;179;633952;-77
2022/05/29 14:43:08;;;;;;;3.77;1.63;;;;;;;;;;775199;179;625475;-78
2022/05/29 14:45:34;;;;;;;3.90;1.57;;;;;;;;;;773731;180;629495;-78
2022/05/29 14:48:03;;;;;;;3.20;1.60;;;;;;;;;;772910;178;629980;-73
2022/05/29 14:50:47;;;;;;;5.73;1.60;;;;;;;;;;767939;178;741093;-75
2022/05/29 14:53:13;;;;;;;4.57;1.60;;;;;;;;;;760267;181;658575;-76
2022/05/29 14:55:41;;;;;;;4.07;1.83;;;;;;;;;;776016;181;627346;-78
2022/05/29 14:58:07;;;;;;;3.33;1.77;;;;;;;;;;773895;180;619197;-79
2022/05/29 15:00:32;;;;;;;6.70;1.67;;;;;;;;;;772711;178;659855;-78
2022/05/29 15:02:58;;;;;;;5.53;1.40;;;;;;;;;;774847;178;634684;-79
2022/05/29 15:05:26;;;;;;;4.53;2.50;;;;;;;;;;768343;181;916854;-77
2022/05/29 15:10:36;;;;;;;4.27;1.60;;;;;;;;;;771203;179;626721;-68
2022/05/29 15:13:02;;;;;;;3.23;1.60;;;;;;;;;;769616;181;622143;-72